sensor_id;sensor_type;location;lat;lon;timestamp;P1;durP1;ratioP1;P2;durP2;ratioP2
84476;SDS011;74700;43.228;0.108;2024-01-16T00:01:45;15.93;;;12.02;;
84476;SDS011;74700;43.228;0.108;2024-01-16T00:04:11;20.77;;;14.30;;
84476;SDS011;74700;43.228;0.108;2024-01-16T00:06:41;23.33;;;15.40;;
84476;SDS011;74700;43.228;0.108;2024-01-16T00:09:07;25.55;;;13.27;;
84476;SDS011;74700;43.228;0.108;2024-01-16T00:11:34;20.23;;;14.13;;
84476;SDS011;74700;43.228;0.108;2024-01-16T00:13:59;21.52;;;13.32;;
84476;SDS011;74700;43.228;0.108;2024-01-16T00:16:25;21.50;;;14.20;;
84476;SDS011;74700;43.228;0.108;2024-01-16T00:18:52;27.73;;;13.98;;
84476;SDS011;74700;43.228;0.108;2024-01-16T00:21:17;38.38;;;18.52;;
84476;SDS011;74700;43.228;0.108;2024-01-16T00:23:43;57.70;;;21.48;;
84476;SDS011;74700;43.228;0.108;2024-01-16T00:26:18;57.83;;;26.15;;
84476;SDS011;74700;43.228;0.108;2024-01-16T00:28:45;38.88;;;17.20;;
84476;SDS011;74700;43.228;0.108;2024-01-16T00:31:11;39.70;;;20.60;;
84476;SDS011;74700;43.228;0.108;2024-01-16T00:33:37;28.92;;;15.98;;
84476;SDS011;74700;43.228;0.108;2024-01-16T00:36:03;26.73;;;16.77;;
84476;SDS011;74700;43.228;0.108;2024-01-16T00:38:32;34.45;;;18.20;;
84476;SDS011;74700;43.228;0.108;2024-01-16T00:40:58;35.90;;;17.95;;
84476;SDS011;74700;43.228;0.108;2024-01-16T00:43:24;35.72;;;16.85;;
84476;SDS011;74700;43.228;0.108;2024-01-16T00:45:50;38.10;;;16.15;;
84476;SDS011;74700;43.228;0.108;2024-01-16T00:48:16;31.92;;;15.93;;
84476;SDS011;74700;43.228;0.108;2024-01-16T00:50:43;15.05;;;10.23;;
84476;SDS011;74700;43.228;0.108;2024-01-16T00:53:11;17.90;;;10.52;;
84476;SDS011;74700;43.228;0.108;2024-01-16T00:55:37;8.75;;;6.32;;
84476;SDS011;74700;43.228;0.108;2024-01-16T00:58:03;14.88;;;5.07;;
84476;SDS011;74700;43.228;0.108;2024-01-16T01:00:29;4.90;;;4.22;;
84476;SDS011;74700;43.228;0.108;2024-01-16T01:02:56;6.50;;;4.78;;
84476;SDS011;74700;43.228;0.108;2024-01-16T01:05:23;9.55;;;5.00;;
84476;SDS011;74700;43.228;0.108;2024-01-16T01:07:53;10.23;;;4.82;;
84476;SDS011;74700;43.228;0.108;2024-01-16T01:10:19;8.43;;;4.20;;
84476;SDS011;74700;43.228;0.108;2024-01-16T01:12:45;5.05;;;3.90;;
84476;SDS011;74700;43.228;0.108;2024-01-16T01:15:11;6.55;;;4.55;;
84476;SDS011;74700;43.228;0.108;2024-01-16T01:17:39;7.82;;;4.07;;
84476;SDS011;74700;43.228;0.108;2024-01-16T01:20:05;3.75;;;3.38;;
84476;SDS011;74700;43.228;0.108;2024-01-16T01:22:31;3.70;;;3.28;;
84476;SDS011;74700;43.228;0.108;2024-01-16T01:24:57;4.10;;;3.28;;
84476;SDS011;74700;43.228;0.108;2024-01-16T01:27:23;4.05;;;3.03;;
84476;SDS011;74700;43.228;0.108;2024-01-16T01:29:49;12.57;;;3.05;;
84476;SDS011;74700;43.228;0.108;2024-01-16T01:32:15;6.40;;;2.58;;
84476;SDS011;74700;43.228;0.108;2024-01-16T01:34:41;4.05;;;2.10;;
84476;SDS011;74700;43.228;0.108;2024-01-16T01:37:07;3.42;;;2.60;;
84476;SDS011;74700;43.228;0.108;2024-01-16T01:39:33;5.32;;;2.40;;
84476;SDS011;74700;43.228;0.108;2024-01-16T01:42:00;4.35;;;2.30;;
84476;SDS011;74700;43.228;0.108;2024-01-16T01:44:26;4.88;;;2.60;;
84476;SDS011;74700;43.228;0.108;2024-01-16T01:46:53;5.05;;;3.70;;
84476;SDS011;74700;43.228;0.108;2024-01-16T01:49:20;4.53;;;2.78;;
84476;SDS011;74700;43.228;0.108;2024-01-16T01:51:48;6.05;;;2.40;;
84476;SDS011;74700;43.228;0.108;2024-01-16T01:54:14;4.78;;;3.28;;
84476;SDS011;74700;43.228;0.108;2024-01-16T01:56:44;8.18;;;2.85;;
84476;SDS011;74700;43.228;0.108;2024-01-16T01:59:11;2.70;;;2.50;;
84476;SDS011;74700;43.228;0.108;2024-01-16T02:01:37;4.05;;;2.85;;
84476;SDS011;74700;43.228;0.108;2024-01-16T02:04:04;2.97;;;2.10;;
84476;SDS011;74700;43.228;0.108;2024-01-16T02:06:30;2.80;;;2.60;;
84476;SDS011;74700;43.228;0.108;2024-01-16T02:08:56;2.55;;;2.33;;
84476;SDS011;74700;43.228;0.108;2024-01-16T02:11:22;2.40;;;2.20;;
84476;SDS011;74700;43.228;0.108;2024-01-16T02:13:48;6.13;;;2.22;;
84476;SDS011;74700;43.228;0.108;2024-01-16T02:16:18;2.05;;;1.95;;
84476;SDS011;74700;43.228;0.108;2024-01-16T02:18:45;3.80;;;2.42;;
84476;SDS011;74700;43.228;0.108;2024-01-16T02:21:11;4.25;;;2.40;;
84476;SDS011;74700;43.228;0.108;2024-01-16T02:23:38;3.03;;;2.40;;
84476;SDS011;74700;43.228;0.108;2024-01-16T02:26:04;4.60;;;2.60;;
84476;SDS011;74700;43.228;0.108;2024-01-16T02:28:30;2.50;;;2.30;;
84476;SDS011;74700;43.228;0.108;2024-01-16T02:30:56;3.90;;;2.50;;
84476;SDS011;74700;43.228;0.108;2024-01-16T02:33:22;2.70;;;2.50;;
84476;SDS011;74700;43.228;0.108;2024-01-16T02:35:48;3.33;;;2.90;;
84476;SDS011;74700;43.228;0.108;2024-01-16T02:38:14;3.90;;;3.10;;
84476;SDS011;74700;43.228;0.108;2024-01-16T02:40:40;3.40;;;3.20;;
84476;SDS011;74700;43.228;0.108;2024-01-16T02:43:06;4.45;;;3.30;;
84476;SDS011;74700;43.228;0.108;2024-01-16T02:45:33;7.47;;;3.35;;
84476;SDS011;74700;43.228;0.108;2024-01-16T02:47:59;5.45;;;3.35;;
84476;SDS011;74700;43.228;0.108;2024-01-16T02:50:25;5.53;;;2.97;;
84476;SDS011;74700;43.228;0.108;2024-01-16T02:52:51;3.63;;;3.00;;
84476;SDS011;74700;43.228;0.108;2024-01-16T02:55:17;3.30;;;3.08;;
84476;SDS011;74700;43.228;0.108;2024-01-16T02:57:44;3.33;;;3.13;;
84476;SDS011;74700;43.228;0.108;2024-01-16T03:00:10;4.78;;;3.83;;
84476;SDS011;74700;43.228;0.108;2024-01-16T03:02:36;5.90;;;3.08;;
84476;SDS011;74700;43.228;0.108;2024-01-16T03:05:03;9.20;;;3.72;;
84476;SDS011;74700;43.228;0.108;2024-01-16T03:07:30;5.90;;;3.35;;
84476;SDS011;74700;43.228;0.108;2024-01-16T03:09:56;3.42;;;3.22;;
84476;SDS011;74700;43.228;0.108;2024-01-16T03:12:22;5.45;;;3.50;;
84476;SDS011;74700;43.228;0.108;2024-01-16T03:14:49;3.22;;;2.97;;
84476;SDS011;74700;43.228;0.108;2024-01-16T03:17:15;3.05;;;2.80;;
84476;SDS011;74700;43.228;0.108;2024-01-16T03:19:41;4.85;;;3.05;;
84476;SDS011;74700;43.228;0.108;2024-01-16T03:22:08;3.88;;;3.00;;
84476;SDS011;74700;43.228;0.108;2024-01-16T03:24:34;3.10;;;2.90;;
84476;SDS011;74700;43.228;0.108;2024-01-16T03:27:01;5.65;;;2.92;;
84476;SDS011;74700;43.228;0.108;2024-01-16T03:29:27;4.80;;;3.75;;
84476;SDS011;74700;43.228;0.108;2024-01-16T03:31:53;5.75;;;2.80;;
84476;SDS011;74700;43.228;0.108;2024-01-16T03:34:19;3.33;;;2.40;;
84476;SDS011;74700;43.228;0.108;2024-01-16T03:36:45;2.70;;;2.50;;
84476;SDS011;74700;43.228;0.108;2024-01-16T03:39:11;5.30;;;2.60;;
84476;SDS011;74700;43.228;0.108;2024-01-16T03:41:37;3.60;;;2.60;;
84476;SDS011;74700;43.228;0.108;2024-01-16T03:44:03;2.92;;;2.67;;
84476;SDS011;74700;43.228;0.108;2024-01-16T03:46:29;2.60;;;2.42;;
84476;SDS011;74700;43.228;0.108;2024-01-16T03:48:55;2.65;;;2.17;;
84476;SDS011;74700;43.228;0.108;2024-01-16T03:51:21;5.10;;;2.78;;
84476;SDS011;74700;43.228;0.108;2024-01-16T03:53:47;7.10;;;3.30;;
84476;SDS011;74700;43.228;0.108;2024-01-16T03:56:13;8.20;;;2.65;;
84476;SDS011;74700;43.228;0.108;2024-01-16T03:58:40;2.75;;;2.55;;
84476;SDS011;74700;43.228;0.108;2024-01-16T04:01:09;5.18;;;3.22;;
84476;SDS011;74700;43.228;0.108;2024-01-16T04:03:35;3.60;;;3.30;;
84476;SDS011;74700;43.228;0.108;2024-01-16T04:06:01;5.63;;;3.75;;
84476;SDS011;74700;43.228;0.108;2024-01-16T04:08:27;4.53;;;3.33;;
84476;SDS011;74700;43.228;0.108;2024-01-16T04:10:53;4.43;;;3.80;;
84476;SDS011;74700;43.228;0.108;2024-01-16T04:13:19;3.60;;;3.30;;
84476;SDS011;74700;43.228;0.108;2024-01-16T04:15:45;8.73;;;3.95;;
84476;SDS011;74700;43.228;0.108;2024-01-16T04:18:11;3.70;;;3.28;;
84476;SDS011;74700;43.228;0.108;2024-01-16T04:20:37;5.20;;;3.90;;
84476;SDS011;74700;43.228;0.108;2024-01-16T04:23:03;3.67;;;3.40;;
84476;SDS011;74700;43.228;0.108;2024-01-16T04:25:29;3.28;;;2.92;;
84476;SDS011;74700;43.228;0.108;2024-01-16T04:27:55;2.80;;;2.60;;
84476;SDS011;74700;43.228;0.108;2024-01-16T04:30:21;3.53;;;2.40;;
84476;SDS011;74700;43.228;0.108;2024-01-16T04:32:47;2.85;;;2.47;;
84476;SDS011;74700;43.228;0.108;2024-01-16T04:35:13;2.45;;;2.25;;
84476;SDS011;74700;43.228;0.108;2024-01-16T04:37:39;5.32;;;2.38;;
84476;SDS011;74700;43.228;0.108;2024-01-16T04:40:06;6.35;;;2.30;;
84476;SDS011;74700;43.228;0.108;2024-01-16T04:42:32;6.05;;;2.25;;
84476;SDS011;74700;43.228;0.108;2024-01-16T04:44:59;4.47;;;2.05;;
84476;SDS011;74700;43.228;0.108;2024-01-16T04:47:25;4.97;;;3.00;;
84476;SDS011;74700;43.228;0.108;2024-01-16T04:49:51;2.60;;;2.38;;
84476;SDS011;74700;43.228;0.108;2024-01-16T04:52:17;4.72;;;2.08;;
84476;SDS011;74700;43.228;0.108;2024-01-16T04:54:43;2.58;;;2.00;;
84476;SDS011;74700;43.228;0.108;2024-01-16T04:57:10;3.88;;;1.90;;
84476;SDS011;74700;43.228;0.108;2024-01-16T04:59:37;4.72;;;2.00;;
84476;SDS011;74700;43.228;0.108;2024-01-16T05:02:03;2.20;;;2.00;;
84476;SDS011;74700;43.228;0.108;2024-01-16T05:04:29;3.35;;;1.98;;
84476;SDS011;74700;43.228;0.108;2024-01-16T05:06:55;2.25;;;2.13;;
84476;SDS011;74700;43.228;0.108;2024-01-16T05:09:21;2.92;;;2.17;;
84476;SDS011;74700;43.228;0.108;2024-01-16T05:11:47;3.15;;;2.50;;
84476;SDS011;74700;43.228;0.108;2024-01-16T05:14:13;5.93;;;2.75;;
84476;SDS011;74700;43.228;0.108;2024-01-16T05:16:39;4.30;;;3.35;;
84476;SDS011;74700;43.228;0.108;2024-01-16T05:19:05;7.47;;;3.47;;
84476;SDS011;74700;43.228;0.108;2024-01-16T05:21:31;6.38;;;3.83;;
84476;SDS011;74700;43.228;0.108;2024-01-16T05:23:57;5.95;;;2.13;;
84476;SDS011;74700;43.228;0.108;2024-01-16T05:26:24;2.42;;;2.10;;
84476;SDS011;74700;43.228;0.108;2024-01-16T05:28:50;7.18;;;2.17;;
84476;SDS011;74700;43.228;0.108;2024-01-16T05:31:16;6.70;;;4.18;;
84476;SDS011;74700;43.228;0.108;2024-01-16T05:33:42;5.35;;;4.85;;
84476;SDS011;74700;43.228;0.108;2024-01-16T05:36:08;6.10;;;4.80;;
84476;SDS011;74700;43.228;0.108;2024-01-16T05:38:34;9.18;;;6.68;;
84476;SDS011;74700;43.228;0.108;2024-01-16T05:41:00;4.85;;;4.35;;
84476;SDS011;74700;43.228;0.108;2024-01-16T05:43:26;9.13;;;5.75;;
84476;SDS011;74700;43.228;0.108;2024-01-16T05:45:54;9.30;;;3.92;;
84476;SDS011;74700;43.228;0.108;2024-01-16T05:48:20;4.53;;;3.25;;
84476;SDS011;74700;43.228;0.108;2024-01-16T05:50:46;4.07;;;2.78;;
84476;SDS011;74700;43.228;0.108;2024-01-16T05:53:13;5.68;;;2.50;;
84476;SDS011;74700;43.228;0.108;2024-01-16T05:55:39;7.45;;;3.50;;
84476;SDS011;74700;43.228;0.108;2024-01-16T05:58:05;6.93;;;2.80;;
84476;SDS011;74700;43.228;0.108;2024-01-16T06:00:31;3.10;;;1.88;;
84476;SDS011;74700;43.228;0.108;2024-01-16T06:02:58;7.82;;;2.63;;
84476;SDS011;74700;43.228;0.108;2024-01-16T06:05:24;3.25;;;1.80;;
84476;SDS011;74700;43.228;0.108;2024-01-16T06:07:50;6.47;;;2.08;;
84476;SDS011;74700;43.228;0.108;2024-01-16T06:10:16;3.95;;;1.70;;
84476;SDS011;74700;43.228;0.108;2024-01-16T06:12:43;2.85;;;1.80;;
84476;SDS011;74700;43.228;0.108;2024-01-16T06:15:09;5.18;;;2.35;;
84476;SDS011;74700;43.228;0.108;2024-01-16T06:17:36;2.67;;;1.92;;
84476;SDS011;74700;43.228;0.108;2024-01-16T06:20:02;6.85;;;2.55;;
84476;SDS011;74700;43.228;0.108;2024-01-16T06:22:29;7.35;;;3.17;;
84476;SDS011;74700;43.228;0.108;2024-01-16T06:24:55;3.40;;;2.28;;
84476;SDS011;74700;43.228;0.108;2024-01-16T06:27:21;4.07;;;2.83;;
84476;SDS011;74700;43.228;0.108;2024-01-16T06:29:48;4.43;;;2.70;;
84476;SDS011;74700;43.228;0.108;2024-01-16T06:32:14;5.68;;;3.63;;
84476;SDS011;74700;43.228;0.108;2024-01-16T06:34:40;12.07;;;2.97;;
84476;SDS011;74700;43.228;0.108;2024-01-16T06:37:06;9.05;;;3.63;;
84476;SDS011;74700;43.228;0.108;2024-01-16T06:39:33;9.82;;;4.93;;
84476;SDS011;74700;43.228;0.108;2024-01-16T06:41:59;5.03;;;4.32;;
84476;SDS011;74700;43.228;0.108;2024-01-16T06:44:25;4.47;;;3.97;;
84476;SDS011;74700;43.228;0.108;2024-01-16T06:46:51;6.20;;;3.13;;
84476;SDS011;74700;43.228;0.108;2024-01-16T06:49:17;4.75;;;3.08;;
84476;SDS011;74700;43.228;0.108;2024-01-16T06:51:43;4.13;;;2.60;;
84476;SDS011;74700;43.228;0.108;2024-01-16T06:54:09;4.00;;;2.90;;
84476;SDS011;74700;43.228;0.108;2024-01-16T06:56:36;5.32;;;2.92;;
84476;SDS011;74700;43.228;0.108;2024-01-16T06:59:02;3.80;;;2.78;;
84476;SDS011;74700;43.228;0.108;2024-01-16T07:01:28;6.35;;;3.42;;
84476;SDS011;74700;43.228;0.108;2024-01-16T07:03:54;5.70;;;2.92;;
84476;SDS011;74700;43.228;0.108;2024-01-16T07:06:20;3.83;;;2.60;;
84476;SDS011;74700;43.228;0.108;2024-01-16T07:08:46;4.88;;;2.92;;
84476;SDS011;74700;43.228;0.108;2024-01-16T07:11:12;5.95;;;2.80;;
84476;SDS011;74700;43.228;0.108;2024-01-16T07:13:41;3.85;;;2.47;;
84476;SDS011;74700;43.228;0.108;2024-01-16T07:16:10;7.10;;;2.58;;
84476;SDS011;74700;43.228;0.108;2024-01-16T07:18:37;10.57;;;2.65;;
84476;SDS011;74700;43.228;0.108;2024-01-16T07:21:04;7.35;;;2.28;;
84476;SDS011;74700;43.228;0.108;2024-01-16T07:23:30;7.95;;;2.30;;
84476;SDS011;74700;43.228;0.108;2024-01-16T07:25:56;4.35;;;2.35;;
84476;SDS011;74700;43.228;0.108;2024-01-16T07:28:22;7.35;;;2.75;;
84476;SDS011;74700;43.228;0.108;2024-01-16T07:30:48;3.70;;;2.97;;
84476;SDS011;74700;43.228;0.108;2024-01-16T07:33:14;4.38;;;3.13;;
84476;SDS011;74700;43.228;0.108;2024-01-16T07:35:40;4.97;;;3.78;;
84476;SDS011;74700;43.228;0.108;2024-01-16T07:38:08;10.15;;;4.00;;
84476;SDS011;74700;43.228;0.108;2024-01-16T07:40:34;9.18;;;4.30;;
84476;SDS011;74700;43.228;0.108;2024-01-16T07:43:01;21.83;;;14.70;;
84476;SDS011;74700;43.228;0.108;2024-01-16T07:45:27;48.70;;;36.83;;
84476;SDS011;74700;43.228;0.108;2024-01-16T07:47:53;32.25;;;19.45;;
84476;SDS011;74700;43.228;0.108;2024-01-16T07:50:19;32.47;;;23.73;;
84476;SDS011;74700;43.228;0.108;2024-01-16T07:52:46;37.65;;;25.40;;
84476;SDS011;74700;43.228;0.108;2024-01-16T07:55:12;25.88;;;21.30;;
84476;SDS011;74700;43.228;0.108;2024-01-16T07:57:38;23.98;;;17.05;;
84476;SDS011;74700;43.228;0.108;2024-01-16T08:00:04;23.90;;;17.42;;
84476;SDS011;74700;43.228;0.108;2024-01-16T08:02:34;23.80;;;17.25;;
84476;SDS011;74700;43.228;0.108;2024-01-16T08:05:01;26.33;;;17.13;;
84476;SDS011;74700;43.228;0.108;2024-01-16T08:07:27;22.42;;;15.02;;
84476;SDS011;74700;43.228;0.108;2024-01-16T08:09:53;17.38;;;11.30;;
84476;SDS011;74700;43.228;0.108;2024-01-16T08:12:19;14.23;;;9.38;;
84476;SDS011;74700;43.228;0.108;2024-01-16T08:14:45;10.73;;;8.75;;
84476;SDS011;74700;43.228;0.108;2024-01-16T08:17:11;12.35;;;8.55;;
84476;SDS011;74700;43.228;0.108;2024-01-16T08:19:37;17.50;;;11.48;;
84476;SDS011;74700;43.228;0.108;2024-01-16T08:22:03;20.90;;;10.02;;
84476;SDS011;74700;43.228;0.108;2024-01-16T08:24:29;46.03;;;11.10;;
84476;SDS011;74700;43.228;0.108;2024-01-16T08:26:55;56.67;;;10.57;;
84476;SDS011;74700;43.228;0.108;2024-01-16T08:29:24;36.90;;;8.63;;
84476;SDS011;74700;43.228;0.108;2024-01-16T08:31:50;27.88;;;8.45;;
84476;SDS011;74700;43.228;0.108;2024-01-16T08:34:17;22.63;;;7.57;;
84476;SDS011;74700;43.228;0.108;2024-01-16T08:36:43;19.92;;;7.90;;
84476;SDS011;74700;43.228;0.108;2024-01-16T08:39:10;43.40;;;9.07;;
84476;SDS011;74700;43.228;0.108;2024-01-16T08:41:36;37.42;;;7.93;;
84476;SDS011;74700;43.228;0.108;2024-01-16T08:44:02;20.15;;;7.90;;
84476;SDS011;74700;43.228;0.108;2024-01-16T08:46:29;20.33;;;6.95;;
84476;SDS011;74700;43.228;0.108;2024-01-16T08:48:55;16.58;;;7.28;;
84476;SDS011;74700;43.228;0.108;2024-01-16T08:51:21;31.58;;;14.30;;
84476;SDS011;74700;43.228;0.108;2024-01-16T08:53:48;63.42;;;33.75;;
84476;SDS011;74700;43.228;0.108;2024-01-16T08:56:14;34.65;;;17.75;;
84476;SDS011;74700;43.228;0.108;2024-01-16T08:58:41;24.92;;;8.90;;
84476;SDS011;74700;43.228;0.108;2024-01-16T09:01:07;19.00;;;9.90;;
84476;SDS011;74700;43.228;0.108;2024-01-16T09:03:35;23.90;;;14.60;;
84476;SDS011;74700;43.228;0.108;2024-01-16T09:06:01;26.73;;;13.38;;
84476;SDS011;74700;43.228;0.108;2024-01-16T09:08:27;21.60;;;10.70;;
84476;SDS011;74700;43.228;0.108;2024-01-16T09:10:54;21.60;;;9.93;;
84476;SDS011;74700;43.228;0.108;2024-01-16T09:13:20;22.35;;;9.60;;
84476;SDS011;74700;43.228;0.108;2024-01-16T09:15:47;21.42;;;7.90;;
84476;SDS011;74700;43.228;0.108;2024-01-16T09:18:14;10.30;;;6.15;;
84476;SDS011;74700;43.228;0.108;2024-01-16T09:20:41;9.75;;;5.60;;
84476;SDS011;74700;43.228;0.108;2024-01-16T09:23:07;10.23;;;5.30;;
84476;SDS011;74700;43.228;0.108;2024-01-16T09:25:33;11.32;;;5.80;;
84476;SDS011;74700;43.228;0.108;2024-01-16T09:27:59;13.90;;;5.68;;
84476;SDS011;74700;43.228;0.108;2024-01-16T09:30:25;8.43;;;4.50;;
84476;SDS011;74700;43.228;0.108;2024-01-16T09:32:52;11.00;;;4.70;;
84476;SDS011;74700;43.228;0.108;2024-01-16T09:35:18;17.00;;;4.63;;
84476;SDS011;74700;43.228;0.108;2024-01-16T09:37:44;9.70;;;4.07;;
84476;SDS011;74700;43.228;0.108;2024-01-16T09:40:10;14.38;;;5.18;;
84476;SDS011;74700;43.228;0.108;2024-01-16T09:42:38;11.75;;;5.13;;
84476;SDS011;74700;43.228;0.108;2024-01-16T09:45:05;11.70;;;6.65;;
84476;SDS011;74700;43.228;0.108;2024-01-16T09:47:33;20.50;;;11.13;;
84476;SDS011;74700;43.228;0.108;2024-01-16T09:49:59;10.63;;;6.45;;
84476;SDS011;74700;43.228;0.108;2024-01-16T09:52:27;15.60;;;6.15;;
84476;SDS011;74700;43.228;0.108;2024-01-16T09:54:53;9.43;;;5.57;;
84476;SDS011;74700;43.228;0.108;2024-01-16T09:57:20;10.18;;;5.18;;
84476;SDS011;74700;43.228;0.108;2024-01-16T09:59:48;9.88;;;6.18;;
84476;SDS011;74700;43.228;0.108;2024-01-16T10:02:14;8.85;;;6.10;;
84476;SDS011;74700;43.228;0.108;2024-01-16T10:04:41;8.32;;;4.93;;
84476;SDS011;74700;43.228;0.108;2024-01-16T10:07:07;11.02;;;6.38;;
84476;SDS011;74700;43.228;0.108;2024-01-16T10:09:35;6.25;;;4.18;;
84476;SDS011;74700;43.228;0.108;2024-01-16T10:12:01;5.82;;;3.15;;
84476;SDS011;74700;43.228;0.108;2024-01-16T10:14:28;7.80;;;2.80;;
84476;SDS011;74700;43.228;0.108;2024-01-16T10:16:55;5.03;;;2.35;;
84476;SDS011;74700;43.228;0.108;2024-01-16T10:19:24;9.45;;;3.38;;
84476;SDS011;74700;43.228;0.108;2024-01-16T10:21:51;6.43;;;2.17;;
84476;SDS011;74700;43.228;0.108;2024-01-16T10:24:17;7.25;;;2.65;;
84476;SDS011;74700;43.228;0.108;2024-01-16T10:26:43;8.77;;;2.80;;
84476;SDS011;74700;43.228;0.108;2024-01-16T10:29:09;12.95;;;2.88;;
84476;SDS011;74700;43.228;0.108;2024-01-16T10:31:35;6.45;;;2.85;;
84476;SDS011;74700;43.228;0.108;2024-01-16T10:34:04;12.27;;;2.40;;
84476;SDS011;74700;43.228;0.108;2024-01-16T10:36:45;6.63;;;2.88;;
84476;SDS011;74700;43.228;0.108;2024-01-16T10:39:11;4.38;;;2.58;;
84476;SDS011;74700;43.228;0.108;2024-01-16T10:41:37;8.65;;;2.20;;
84476;SDS011;74700;43.228;0.108;2024-01-16T10:44:04;5.88;;;2.55;;
84476;SDS011;74700;43.228;0.108;2024-01-16T10:46:32;5.97;;;2.42;;
84476;SDS011;74700;43.228;0.108;2024-01-16T10:48:59;5.65;;;2.67;;
84476;SDS011;74700;43.228;0.108;2024-01-16T10:51:26;7.85;;;2.40;;
84476;SDS011;74700;43.228;0.108;2024-01-16T10:53:53;12.43;;;3.00;;
84476;SDS011;74700;43.228;0.108;2024-01-16T10:56:21;4.30;;;2.65;;
84476;SDS011;74700;43.228;0.108;2024-01-16T10:58:49;7.18;;;2.72;;
84476;SDS011;74700;43.228;0.108;2024-01-16T11:01:21;5.28;;;2.38;;
84476;SDS011;74700;43.228;0.108;2024-01-16T11:03:48;6.30;;;2.22;;
84476;SDS011;74700;43.228;0.108;2024-01-16T11:06:17;5.55;;;2.40;;
84476;SDS011;74700;43.228;0.108;2024-01-16T11:08:47;7.22;;;1.92;;
84476;SDS011;74700;43.228;0.108;2024-01-16T11:11:14;6.72;;;2.72;;
84476;SDS011;74700;43.228;0.108;2024-01-16T11:13:40;8.10;;;3.67;;
84476;SDS011;74700;43.228;0.108;2024-01-16T11:16:10;5.60;;;2.60;;
84476;SDS011;74700;43.228;0.108;2024-01-16T11:18:36;6.65;;;2.22;;
84476;SDS011;74700;43.228;0.108;2024-01-16T11:21:02;7.38;;;2.72;;
84476;SDS011;74700;43.228;0.108;2024-01-16T11:23:29;8.48;;;3.17;;
84476;SDS011;74700;43.228;0.108;2024-01-16T11:25:56;49.38;;;24.73;;
84476;SDS011;74700;43.228;0.108;2024-01-16T11:28:26;9.15;;;4.18;;
84476;SDS011;74700;43.228;0.108;2024-01-16T11:30:53;4.55;;;2.10;;
84476;SDS011;74700;43.228;0.108;2024-01-16T11:35:57;8.85;;;2.05;;
84476;SDS011;74700;43.228;0.108;2024-01-16T11:38:24;5.43;;;2.58;;
84476;SDS011;74700;43.228;0.108;2024-01-16T11:40:52;9.05;;;3.47;;
84476;SDS011;74700;43.228;0.108;2024-01-16T11:43:34;6.68;;;3.30;;
84476;SDS011;74700;43.228;0.108;2024-01-16T11:46:04;8.90;;;3.95;;
84476;SDS011;74700;43.228;0.108;2024-01-16T11:48:30;6.85;;;3.40;;
84476;SDS011;74700;43.228;0.108;2024-01-16T11:50:56;7.95;;;2.42;;
84476;SDS011;74700;43.228;0.108;2024-01-16T11:53:32;7.55;;;3.25;;
84476;SDS011;74700;43.228;0.108;2024-01-16T12:01:27;6.80;;;2.70;;
84476;SDS011;74700;43.228;0.108;2024-01-16T12:04:01;6.75;;;2.30;;
84476;SDS011;74700;43.228;0.108;2024-01-16T12:06:27;4.80;;;1.90;;
84476;SDS011;74700;43.228;0.108;2024-01-16T12:08:53;4.45;;;2.40;;
84476;SDS011;74700;43.228;0.108;2024-01-16T12:11:19;7.88;;;3.22;;
84476;SDS011;74700;43.228;0.108;2024-01-16T12:14:00;8.07;;;1.90;;
84476;SDS011;74700;43.228;0.108;2024-01-16T12:16:26;3.53;;;1.75;;
84476;SDS011;74700;43.228;0.108;2024-01-16T12:19:03;12.38;;;1.70;;
84476;SDS011;74700;43.228;0.108;2024-01-16T12:21:29;5.72;;;1.92;;
84476;SDS011;74700;43.228;0.108;2024-01-16T12:23:55;6.28;;;2.03;;
84476;SDS011;74700;43.228;0.108;2024-01-16T12:26:22;3.47;;;1.60;;
84476;SDS011;74700;43.228;0.108;2024-01-16T12:28:54;5.78;;;1.77;;
84476;SDS011;74700;43.228;0.108;2024-01-16T12:31:21;3.80;;;1.75;;
84476;SDS011;74700;43.228;0.108;2024-01-16T12:33:48;5.38;;;1.90;;
84476;SDS011;74700;43.228;0.108;2024-01-16T12:36:14;9.70;;;2.13;;
84476;SDS011;74700;43.228;0.108;2024-01-16T12:38:41;9.63;;;1.92;;
84476;SDS011;74700;43.228;0.108;2024-01-16T12:41:08;7.20;;;2.10;;
84476;SDS011;74700;43.228;0.108;2024-01-16T12:43:34;3.97;;;1.60;;
84476;SDS011;74700;43.228;0.108;2024-01-16T12:46:01;9.60;;;2.17;;
84476;SDS011;74700;43.228;0.108;2024-01-16T12:48:28;5.22;;;1.98;;
84476;SDS011;74700;43.228;0.108;2024-01-16T12:51:00;4.70;;;1.60;;
84476;SDS011;74700;43.228;0.108;2024-01-16T12:53:31;5.10;;;1.77;;
84476;SDS011;74700;43.228;0.108;2024-01-16T12:56:04;5.13;;;1.77;;
84476;SDS011;74700;43.228;0.108;2024-01-16T12:58:33;8.73;;;2.30;;
84476;SDS011;74700;43.228;0.108;2024-01-16T13:01:20;5.68;;;2.22;;
84476;SDS011;74700;43.228;0.108;2024-01-16T13:03:45;3.45;;;1.80;;
84476;SDS011;74700;43.228;0.108;2024-01-16T13:06:16;6.40;;;1.73;;
84476;SDS011;74700;43.228;0.108;2024-01-16T13:08:43;22.33;;;2.85;;
84476;SDS011;74700;43.228;0.108;2024-01-16T13:11:09;5.15;;;2.65;;
84476;SDS011;74700;43.228;0.108;2024-01-16T13:13:36;7.18;;;2.80;;
84476;SDS011;74700;43.228;0.108;2024-01-16T13:16:02;6.07;;;2.20;;
84476;SDS011;74700;43.228;0.108;2024-01-16T13:18:32;5.85;;;2.25;;
84476;SDS011;74700;43.228;0.108;2024-01-16T13:21:00;3.85;;;2.33;;
84476;SDS011;74700;43.228;0.108;2024-01-16T13:23:27;4.93;;;2.10;;
84476;SDS011;74700;43.228;0.108;2024-01-16T13:25:53;6.57;;;1.92;;
84476;SDS011;74700;43.228;0.108;2024-01-16T13:30:52;8.80;;;2.40;;
84476;SDS011;74700;43.228;0.108;2024-01-16T13:33:19;6.35;;;2.22;;
84476;SDS011;74700;43.228;0.108;2024-01-16T13:35:45;7.53;;;2.47;;
84476;SDS011;74700;43.228;0.108;2024-01-16T13:38:11;9.38;;;2.65;;
84476;SDS011;74700;43.228;0.108;2024-01-16T13:40:38;12.13;;;2.60;;
84476;SDS011;74700;43.228;0.108;2024-01-16T13:43:04;11.50;;;3.05;;
84476;SDS011;74700;43.228;0.108;2024-01-16T13:45:31;4.53;;;2.92;;
84476;SDS011;74700;43.228;0.108;2024-01-16T13:47:58;6.85;;;2.63;;
84476;SDS011;74700;43.228;0.108;2024-01-16T13:50:26;6.07;;;2.58;;
84476;SDS011;74700;43.228;0.108;2024-01-16T13:52:52;6.40;;;2.88;;
84476;SDS011;74700;43.228;0.108;2024-01-16T13:55:19;18.88;;;2.90;;
84476;SDS011;74700;43.228;0.108;2024-01-16T13:57:46;6.05;;;2.17;;
84476;SDS011;74700;43.228;0.108;2024-01-16T14:00:12;6.25;;;2.50;;
84476;SDS011;74700;43.228;0.108;2024-01-16T14:02:40;7.10;;;2.05;;
84476;SDS011;74700;43.228;0.108;2024-01-16T14:05:16;8.65;;;2.53;;
84476;SDS011;74700;43.228;0.108;2024-01-16T14:07:45;3.17;;;2.28;;
84476;SDS011;74700;43.228;0.108;2024-01-16T14:10:12;5.57;;;2.35;;
84476;SDS011;74700;43.228;0.108;2024-01-16T14:12:39;4.15;;;2.28;;
84476;SDS011;74700;43.228;0.108;2024-01-16T14:15:08;9.35;;;2.83;;
84476;SDS011;74700;43.228;0.108;2024-01-16T14:17:42;5.80;;;2.35;;
84476;SDS011;74700;43.228;0.108;2024-01-16T14:20:10;9.30;;;2.95;;
84476;SDS011;74700;43.228;0.108;2024-01-16T14:22:36;4.55;;;2.42;;
84476;SDS011;74700;43.228;0.108;2024-01-16T14:25:06;4.03;;;2.30;;
84476;SDS011;74700;43.228;0.108;2024-01-16T14:27:39;8.82;;;3.33;;
84476;SDS011;74700;43.228;0.108;2024-01-16T14:30:07;7.07;;;3.08;;
84476;SDS011;74700;43.228;0.108;2024-01-16T14:32:35;4.82;;;2.75;;
84476;SDS011;74700;43.228;0.108;2024-01-16T14:35:03;10.48;;;2.97;;
84476;SDS011;74700;43.228;0.108;2024-01-16T14:37:29;10.65;;;2.50;;
84476;SDS011;74700;43.228;0.108;2024-01-16T14:39:55;4.18;;;2.13;;
84476;SDS011;74700;43.228;0.108;2024-01-16T14:42:25;9.40;;;2.22;;
84476;SDS011;74700;43.228;0.108;2024-01-16T14:44:51;3.90;;;2.25;;
84476;SDS011;74700;43.228;0.108;2024-01-16T14:47:17;5.70;;;2.20;;
84476;SDS011;74700;43.228;0.108;2024-01-16T14:49:43;7.70;;;2.70;;
84476;SDS011;74700;43.228;0.108;2024-01-16T14:52:09;6.60;;;2.42;;